Time;durP1;ratioP1;P1;durP2;ratioP2;P2;SDS_P1;SDS_P2;PMS_P1;PMS_P2;Temp;Humidity;BMP_temperature;BMP_pressure;BME280_temperature;BME280_humidity;BME280_pressure;Samples;Min_cycle;Max_cycle;Signal;HPM_P1;HPM_P2
2021/09/27 00:00:44;;;;;;;;;;;24.00;54.00;;;;;;1539159;77;791;-56
2021/09/27 00:02:46;;;;;;;;;;;24.00;54.00;;;;;;1527335;77;690;-60
2021/09/27 00:04:48;;;;;;;;;;;24.00;54.00;;;;;;1531291;77;1134;-60
2021/09/27 00:06:49;;;;;;;;;;;24.00;54.10;;;;;;1523350;77;729;-59
2021/09/27 00:08:51;;;;;;;;;;;24.00;54.10;;;;;;1507583;77;817;-59
2021/09/27 00:10:58;;;;;;;;;;;24.00;54.10;;;;;;1512431;77;812;-58
2021/09/27 00:13:00;;;;;;;;;;;24.10;54.20;;;;;;1538250;76;775;-59
2021/09/27 00:15:02;;;;;;;;;;;24.10;54.20;;;;;;1515801;77;1078;-58
2021/09/27 00:17:07;;;;;;;;;;;24.00;54.10;;;;;;1521146;77;709;-58
2021/09/27 00:19:08;;;;;;;;;;;24.00;54.10;;;;;;1521048;77;1657;-57
2021/09/27 00:21:11;;;;;;;;;;;24.00;54.10;;;;;;1531408;77;822;-59
2021/09/27 00:23:14;;;;;;;;;;;24.00;54.00;;;;;;1494419;78;1139;-55
2021/09/27 00:25:17;;;;;;;;;;;24.00;54.10;;;;;;1509421;77;1147;-56
2021/09/27 00:27:19;;;;;;;;;;;24.00;54.10;;;;;;1512326;77;1926;-59
2021/09/27 00:29:21;;;;;;;;;;;24.00;54.10;;;;;;1520817;77;719;-57
2021/09/27 00:31:22;;;;;;;;;;;24.00;54.10;;;;;;1525799;77;746;-58
2021/09/27 00:33:24;;;;;;;;;;;24.00;54.10;;;;;;1530004;77;779;-57
2021/09/27 00:35:27;;;;;;;;;;;24.00;54.10;;;;;;1515521;77;1141;-55
2021/09/27 00:37:29;;;;;;;;;;;24.00;54.20;;;;;;1512467;77;783;-57
2021/09/27 00:39:31;;;;;;;;;;;24.00;54.20;;;;;;1512416;77;730;-58
2021/09/27 00:41:33;;;;;;;;;;;24.00;54.20;;;;;;1517268;77;783;-57
2021/09/27 00:43:36;;;;;;;;;;;24.00;54.20;;;;;;1516358;77;1118;-59
2021/09/27 00:45:39;;;;;;;;;;;24.00;54.20;;;;;;1525807;77;732;-57
2021/09/27 00:47:41;;;;;;;;;;;24.00;54.20;;;;;;1530721;77;1929;-56
2021/09/27 00:49:43;;;;;;;;;;;24.00;54.10;;;;;;1519401;77;819;-57
2021/09/27 00:51:45;;;;;;;;;;;24.00;54.10;;;;;;1541724;75;3134;-53
2021/09/27 00:53:47;;;;;;;;;;;24.00;54.10;;;;;;1527952;76;1194;-57
2021/09/27 00:55:49;;;;;;;;;;;24.00;54.20;;;;;;1550333;75;743;-54
2021/09/27 00:57:51;;;;;;;;;;;24.00;54.10;;;;;;1578003;74;715;-55
2021/09/27 00:59:53;;;;;;;;;;;24.10;54.30;;;;;;1571366;74;724;-56
2021/09/27 01:01:55;;;;;;;;;;;24.00;54.10;;;;;;1565122;74;756;-56
2021/09/27 01:03:57;;;;;;;;;;;24.00;54.10;;;;;;1570405;74;1136;-56
2021/09/27 01:06:07;;;;;;;;;;;24.00;54.00;;;;;;1565996;74;765;-56
2021/09/27 01:08:10;;;;;;;;;;;24.00;54.00;;;;;;1573310;74;1942;-55
2021/09/27 01:10:30;;;;;;;;;;;24.00;54.00;;;;;;1555421;74;1738;-55
2021/09/27 01:12:38;;;;;;;;;;;23.90;54.00;;;;;;1562453;74;772;-55
2021/09/27 01:14:58;;;;;;;;;;;24.00;54.10;;;;;;1571407;74;1146;-55
2021/09/27 01:17:04;;;;;;;;;;;24.00;54.10;;;;;;1571092;74;788;-56
2021/09/27 01:19:24;;;;;;;;;;;24.00;54.10;;;;;;1570447;74;1941;-56
2021/09/27 01:21:28;;;;;;;;;;;24.00;54.10;;;;;;1568369;74;819;-55
2021/09/27 01:23:47;;;;;;;;;;;24.00;54.10;;;;;;1568589;74;1222;-56
2021/09/27 01:25:54;;;;;;;;;;;24.00;54.10;;;;;;1581945;74;704;-54
2021/09/27 01:28:00;;;;;;;;;;;24.00;54.10;;;;;;1567031;74;1929;-54
2021/09/27 01:30:04;;;;;;;;;;;23.90;54.10;;;;;;1570925;74;717;-57
2021/09/27 01:32:26;;;;;;;;;;;24.00;54.10;;;;;;1567437;74;1862;-56
2021/09/27 01:34:38;;;;;;;;;;;24.00;54.00;;;;;;1570665;74;1139;-56
2021/09/27 01:36:42;;;;;;;;;;;24.00;54.00;;;;;;1563352;74;695;-57
2021/09/27 01:39:00;;;;;;;;;;;24.00;54.10;;;;;;1570158;74;1569;-57
2021/09/27 01:41:04;;;;;;;;;;;24.00;54.10;;;;;;1569163;74;1936;-58
2021/09/27 01:43:10;;;;;;;;;;;24.00;54.00;;;;;;1576590;74;793;-58
2021/09/27 01:45:14;;;;;;;;;;;24.00;54.00;;;;;;1570901;74;1200;-57
2021/09/27 01:47:26;;;;;;;;;;;24.00;53.90;;;;;;1559801;74;762;-57
2021/09/27 01:49:32;;;;;;;;;;;24.00;53.90;;;;;;1570077;74;786;-58
2021/09/27 01:51:44;;;;;;;;;;;24.00;53.90;;;;;;1568003;74;816;-58
2021/09/27 01:53:51;;;;;;;;;;;24.00;53.90;;;;;;1575718;74;1071;-56
2021/09/27 01:56:00;;;;;;;;;;;24.00;53.70;;;;;;1575290;74;668;-58
2021/09/27 01:58:06;;;;;;;;;;;23.90;53.70;;;;;;1572102;74;997;-58
2021/09/27 02:00:19;;;;;;;;;;;24.00;53.70;;;;;;1564974;74;729;-57
2021/09/27 02:02:22;;;;;;;;;;;24.00;53.80;;;;;;1575697;74;752;-58
2021/09/27 02:04:44;;;;;;;;;;;23.90;53.80;;;;;;1570912;74;1149;-58
2021/09/27 02:06:48;;;;;;;;;;;24.00;53.80;;;;;;1572135;74;2275;-58
2021/09/27 02:08:51;;;;;;;;;;;23.90;53.70;;;;;;1572260;74;1931;-57
2021/09/27 02:10:55;;;;;;;;;;;23.90;53.70;;;;;;1580013;74;1183;-57
2021/09/27 02:12:58;;;;;;;;;;;23.90;53.70;;;;;;1573486;74;1822;-58
2021/09/27 02:15:08;;;;;;;;;;;23.90;53.70;;;;;;1570321;74;1779;-56
2021/09/27 02:17:14;;;;;;;;;;;23.90;53.80;;;;;;1566116;74;1134;-57
2021/09/27 02:19:24;;;;;;;;;;;23.90;53.80;;;;;;1571790;74;756;-56
2021/09/27 02:21:27;;;;;;;;;;;23.90;53.80;;;;;;1576169;74;822;-56
2021/09/27 02:23:30;;;;;;;;;;;23.90;53.70;;;;;;1574625;74;1866;-56
2021/09/27 02:25:33;;;;;;;;;;;23.90;53.70;;;;;;1564524;74;766;-58
2021/09/27 02:27:35;;;;;;;;;;;23.90;53.60;;;;;;1573805;74;815;-57
2021/09/27 02:29:38;;;;;;;;;;;23.90;53.60;;;;;;1575648;74;1933;-56
2021/09/27 02:31:47;;;;;;;;;;;23.90;53.70;;;;;;1575793;74;754;-56
2021/09/27 02:34:03;;;;;;;;;;;24.00;53.70;;;;;;1575594;74;1140;-56
2021/09/27 02:36:18;;;;;;;;;;;24.00;53.60;;;;;;1571231;74;773;-57
2021/09/27 02:38:33;;;;;;;;;;;23.90;53.60;;;;;;1562748;74;705;-55
2021/09/27 02:40:36;;;;;;;;;;;23.90;53.60;;;;;;1575436;74;1923;-56
2021/09/27 02:42:49;;;;;;;;;;;23.90;53.60;;;;;;1575307;74;861;-57
2021/09/27 02:44:51;;;;;;;;;;;23.90;53.60;;;;;;1579404;74;1799;-58
2021/09/27 02:46:54;;;;;;;;;;;23.90;53.50;;;;;;1588455;74;723;-58
2021/09/27 02:48:58;;;;;;;;;;;23.90;53.30;;;;;;1584018;73;1903;-58
2021/09/27 02:51:00;;;;;;;;;;;24.00;53.30;;;;;;1570229;74;1678;-59
2021/09/27 02:53:02;;;;;;;;;;;23.90;53.20;;;;;;1576589;74;762;-58
2021/09/27 02:55:05;;;;;;;;;;;23.90;53.20;;;;;;1586711;74;1171;-58
2021/09/27 02:57:27;;;;;;;;;;;23.90;53.30;;;;;;1586643;74;725;-58
2021/09/27 02:59:33;;;;;;;;;;;23.90;53.20;;;;;;1581133;74;1917;-58
2021/09/27 03:01:37;;;;;;;;;;;23.80;53.20;;;;;;1578152;74;788;-57
2021/09/27 03:03:40;;;;;;;;;;;23.90;53.30;;;;;;1581301;74;1075;-60
2021/09/27 03:06:01;;;;;;;;;;;23.90;53.20;;;;;;1579653;74;743;-58
2021/09/27 03:08:07;;;;;;;;;;;23.90;53.30;;;;;;1590164;74;1906;-59
2021/09/27 03:10:25;;;;;;;;;;;23.90;53.40;;;;;;1586774;74;761;-58
2021/09/27 03:12:38;;;;;;;;;;;23.90;53.40;;;;;;1580866;74;819;-58
2021/09/27 03:15:00;;;;;;;;;;;23.80;53.30;;;;;;1572353;74;1154;-58
2021/09/27 03:17:18;;;;;;;;;;;23.80;53.30;;;;;;1583373;74;780;-58
2021/09/27 03:19:22;;;;;;;;;;;23.90;53.40;;;;;;1575850;74;702;-59
2021/09/27 03:21:25;;;;;;;;;;;23.80;53.30;;;;;;1573840;74;1094;-58
2021/09/27 03:23:29;;;;;;;;;;;23.90;53.40;;;;;;1586357;74;1660;-57
2021/09/27 03:25:38;;;;;;;;;;;23.80;53.30;;;;;;1574985;73;2125;-58
2021/09/27 03:27:42;;;;;;;;;;;23.80;53.20;;;;;;1584772;74;1466;-59
2021/09/27 03:29:52;;;;;;;;;;;23.80;53.20;;;;;;1584511;74;1947;-59
2021/09/27 03:32:13;;;;;;;;;;;23.90;53.30;;;;;;1588754;74;743;-58
2021/09/27 03:34:29;;;;;;;;;;;23.90;53.30;;;;;;1576410;73;1941;-60
2021/09/27 03:36:48;;;;;;;;;;;23.80;53.20;;;;;;1578727;74;1462;-58
2021/09/27 03:38:54;;;;;;;;;;;23.80;53.30;;;;;;1508541;78;1060;-58
2021/09/27 03:40:58;;;;;;;;;;;23.80;53.10;;;;;;1545585;74;1120;-59
2021/09/27 03:43:04;;;;;;;;;;;23.80;53.10;;;;;;1585853;74;760;-58
2021/09/27 03:45:08;;;;;;;;;;;23.80;53.20;;;;;;1578834;74;1784;-60
2021/09/27 03:47:14;;;;;;;;;;;23.70;53.10;;;;;;1584250;74;688;-58
2021/09/27 03:49:27;;;;;;;;;;;23.80;53.10;;;;;;1581981;74;1930;-59
2021/09/27 03:51:32;;;;;;;;;;;23.80;53.10;;;;;;1590445;74;1916;-59
2021/09/27 03:53:48;;;;;;;;;;;23.80;53.10;;;;;;1584448;74;1160;-58
2021/09/27 03:55:51;;;;;;;;;;;23.80;53.20;;;;;;1585020;74;800;-58
2021/09/27 03:57:55;;;;;;;;;;;23.80;53.10;;;;;;1584923;74;749;-58
2021/09/27 03:59:59;;;;;;;;;;;23.80;53.10;;;;;;1571663;74;1009;-58
2021/09/27 04:02:10;;;;;;;;;;;23.80;53.10;;;;;;1585580;74;789;-59
2021/09/27 04:04:14;;;;;;;;;;;23.80;53.10;;;;;;1584945;74;1125;-58
2021/09/27 04:06:17;;;;;;;;;;;23.80;53.10;;;;;;1580745;74;712;-58
2021/09/27 04:08:23;;;;;;;;;;;23.80;53.10;;;;;;1584582;74;1923;-60
2021/09/27 04:10:27;;;;;;;;;;;23.80;53.10;;;;;;1580368;74;710;-58
2021/09/27 04:12:36;;;;;;;;;;;23.80;53.10;;;;;;1584886;74;1940;-58
2021/09/27 04:14:40;;;;;;;;;;;23.70;53.10;;;;;;1580699;74;1074;-58
2021/09/27 04:16:46;;;;;;;;;;;23.70;53.10;;;;;;1585250;74;1161;-57
2021/09/27 04:18:50;;;;;;;;;;;23.70;53.10;;;;;;1583624;74;1952;-57
2021/09/27 04:20:59;;;;;;;;;;;23.70;53.20;;;;;;1576242;74;715;-59
2021/09/27 04:23:21;;;;;;;;;;;23.70;53.20;;;;;;1579530;74;729;-59
2021/09/27 04:25:24;;;;;;;;;;;23.70;53.10;;;;;;1580543;74;1110;-58
2021/09/27 04:27:28;;;;;;;;;;;23.70;53.10;;;;;;1589481;73;2010;-58
2021/09/27 04:29:37;;;;;;;;;;;23.70;53.20;;;;;;1579912;74;1940;-57
2021/09/27 04:31:47;;;;;;;;;;;23.70;53.30;;;;;;1579771;74;2217;-59
2021/09/27 04:33:56;;;;;;;;;;;23.70;53.20;;;;;;1587690;74;1833;-58
2021/09/27 04:36:03;;;;;;;;;;;23.70;53.40;;;;;;1587911;74;714;-60
2021/09/27 04:38:05;;;;;;;;;;;23.80;53.30;;;;;;1578493;74;754;-58
2021/09/27 04:40:08;;;;;;;;;;;23.80;53.20;;;;;;1580549;74;656;-58
2021/09/27 04:42:28;;;;;;;;;;;23.70;53.20;;;;;;1582783;74;821;-57
2021/09/27 04:44:29;;;;;;;;;;;23.80;53.30;;;;;;1578807;74;1193;-59
2021/09/27 04:46:35;;;;;;;;;;;23.70;53.20;;;;;;1584334;74;1920;-59
2021/09/27 04:48:39;;;;;;;;;;;23.70;53.20;;;;;;1581101;74;1934;-58
2021/09/27 04:50:59;;;;;;;;;;;23.70;53.20;;;;;;1584216;74;773;-57
2021/09/27 04:53:05;;;;;;;;;;;23.70;53.20;;;;;;1577970;74;971;-58
2021/09/27 04:55:09;;;;;;;;;;;23.70;53.30;;;;;;1580930;74;1911;-57
2021/09/27 04:57:28;;;;;;;;;;;23.70;53.30;;;;;;1582613;74;693;-57
2021/09/27 04:59:48;;;;;;;;;;;23.80;53.30;;;;;;1583261;74;812;-59
2021/09/27 05:01:51;;;;;;;;;;;23.70;53.40;;;;;;1584611;74;724;-58
2021/09/27 05:03:58;;;;;;;;;;;23.70;53.40;;;;;;1584895;74;1974;-57
2021/09/27 05:06:01;;;;;;;;;;;23.70;53.10;;;;;;1578741;74;754;-58
2021/09/27 05:08:08;;;;;;;;;;;23.80;53.10;;;;;;1579811;74;710;-59
2021/09/27 05:10:11;;;;;;;;;;;23.70;53.10;;;;;;1579889;74;2105;-58
2021/09/27 05:12:18;;;;;;;;;;;23.70;52.80;;;;;;1575355;74;2081;-58
2021/09/27 05:14:33;;;;;;;;;;;23.70;52.60;;;;;;1565880;74;1918;-58
2021/09/27 05:16:54;;;;;;;;;;;23.70;52.30;;;;;;1565599;74;717;-56
2021/09/27 05:19:00;;;;;;;;;;;23.70;52.20;;;;;;1575574;74;722;-56
2021/09/27 05:21:06;;;;;;;;;;;23.70;52.60;;;;;;1576144;74;972;-57
2021/09/27 05:23:10;;;;;;;;;;;23.80;52.60;;;;;;1574268;74;784;-56
2021/09/27 05:25:30;;;;;;;;;;;23.80;52.50;;;;;;1571966;74;1583;-56
2021/09/27 05:27:33;;;;;;;;;;;23.70;52.20;;;;;;1575056;74;814;-55
2021/09/27 05:29:43;;;;;;;;;;;23.80;52.10;;;;;;1580115;74;1914;-58
2021/09/27 05:31:49;;;;;;;;;;;23.80;52.10;;;;;;1575495;74;733;-57
2021/09/27 05:33:52;;;;;;;;;;;23.70;52.20;;;;;;1573701;74;1899;-57
2021/09/27 05:36:02;;;;;;;;;;;23.70;52.10;;;;;;1566620;74;692;-56
2021/09/27 05:38:05;;;;;;;;;;;23.70;52.20;;;;;;1572808;74;721;-57
2021/09/27 05:40:12;;;;;;;;;;;23.70;52.20;;;;;;1575096;74;1855;-57
2021/09/27 05:42:21;;;;;;;;;;;23.80;52.20;;;;;;1575391;74;760;-58
2021/09/27 05:44:28;;;;;;;;;;;23.70;52.20;;;;;;1584755;74;1128;-56
2021/09/27 05:46:48;;;;;;;;;;;23.70;52.10;;;;;;1566670;74;1968;-58
2021/09/27 05:48:54;;;;;;;;;;;23.70;52.10;;;;;;1573895;74;1934;-57
2021/09/27 05:51:12;;;;;;;;;;;23.60;51.90;;;;;;1571623;74;1571;-58
2021/09/27 05:53:31;;;;;;;;;;;23.60;51.80;;;;;;1575911;74;796;-58
2021/09/27 05:55:34;;;;;;;;;;;23.60;51.80;;;;;;1582242;74;762;-58
2021/09/27 05:57:37;;;;;;;;;;;23.70;52.00;;;;;;1585910;74;781;-57
2021/09/27 05:59:56;;;;;;;;;;;23.60;51.90;;;;;;1586929;74;728;-58
2021/09/27 06:02:00;;;;;;;;;;;23.60;51.90;;;;;;1580027;74;1829;-56
2021/09/27 06:04:03;;;;;;;;;;;23.60;51.90;;;;;;1584976;74;1160;-58
2021/09/27 06:06:26;;;;;;;;;;;23.60;51.90;;;;;;1584820;74;788;-58
2021/09/27 06:08:48;;;;;;;;;;;23.50;51.90;;;;;;1585260;74;803;-58
2021/09/27 06:10:57;;;;;;;;;;;23.50;51.90;;;;;;1491263;78;1061;-58
2021/09/27 06:13:17;;;;;;;;;;;23.60;51.80;;;;;;1490546;78;835;-57
2021/09/27 06:15:19;;;;;;;;;;;23.50;51.80;;;;;;1491172;78;1126;-57
2021/09/27 06:17:40;;;;;;;;;;;23.50;51.80;;;;;;1577584;74;813;-57
2021/09/27 06:19:59;;;;;;;;;;;23.50;51.80;;;;;;1583288;74;1541;-58
2021/09/27 06:22:19;;;;;;;;;;;23.50;51.80;;;;;;1566868;74;1744;-57
2021/09/27 06:24:22;;;;;;;;;;;23.50;51.40;;;;;;1565054;74;1130;-58
2021/09/27 06:26:24;;;;;;;;;;;23.50;51.20;;;;;;1576020;74;2084;-57
2021/09/27 06:28:34;;;;;;;;;;;23.50;51.00;;;;;;1576236;74;805;-58
2021/09/27 06:30:43;;;;;;;;;;;23.50;50.90;;;;;;1578890;74;1928;-56
2021/09/27 06:32:53;;;;;;;;;;;23.40;50.80;;;;;;1580596;74;722;-57
2021/09/27 06:34:55;;;;;;;;;;;23.40;50.90;;;;;;1577886;74;1150;-56
2021/09/27 06:36:57;;;;;;;;;;;23.40;50.90;;;;;;1578013;74;750;-57
2021/09/27 06:39:00;;;;;;;;;;;23.20;50.80;;;;;;1575028;74;778;-57
2021/09/27 06:41:03;;;;;;;;;;;23.30;51.00;;;;;;1581972;74;748;-57
2021/09/27 06:43:05;;;;;;;;;;;23.30;51.00;;;;;;1588661;74;711;-55
2021/09/27 06:45:07;;;;;;;;;;;23.30;51.00;;;;;;1584617;74;1131;-56
2021/09/27 06:47:09;;;;;;;;;;;23.30;51.00;;;;;;1591440;74;774;-57
2021/09/27 06:49:11;;;;;;;;;;;23.30;51.00;;;;;;1590389;74;1945;-56
2021/09/27 06:51:14;;;;;;;;;;;23.30;51.00;;;;;;1574836;72;223023;-74
2021/09/27 06:53:16;;;;;;;;;;;23.30;51.00;;;;;;1563136;75;725;-72
2021/09/27 06:55:18;;;;;;;;;;;23.20;50.90;;;;;;1557009;75;674;-74
2021/09/27 06:57:19;;;;;;;;;;;23.30;51.00;;;;;;1564884;75;729;-72
2021/09/27 06:59:21;;;;;;;;;;;23.30;51.00;;;;;;1566261;75;762;-75
2021/09/27 07:01:23;;;;;;;;;;;23.30;51.00;;;;;;1554806;75;1202;-75
2021/09/27 07:03:25;;;;;;;;;;;23.30;51.00;;;;;;1557988;76;731;-75
2021/09/27 07:05:27;;;;;;;;;;;23.30;51.10;;;;;;1560628;76;797;-75
2021/09/27 07:07:29;;;;;;;;;;;23.20;51.00;;;;;;1558519;76;713;-74
2021/09/27 07:09:31;;;;;;;;;;;23.30;51.20;;;;;;1562281;76;1936;-76
2021/09/27 07:11:33;;;;;;;;;;;23.30;51.20;;;;;;1562848;76;1142;-75
2021/09/27 07:13:34;;;;;;;;;;;23.20;51.20;;;;;;1563052;76;722;-74
2021/09/27 07:15:36;;;;;;;;;;;23.30;51.30;;;;;;1562992;76;739;-74
2021/09/27 07:17:38;;;;;;;;;;;23.30;51.30;;;;;;1560998;76;735;-78
2021/09/27 07:19:41;;;;;;;;;;;23.20;51.20;;;;;;1561060;76;720;-77
2021/09/27 07:21:43;;;;;;;;;;;23.30;51.30;;;;;;1562836;76;1179;-79
2021/09/27 07:23:45;;;;;;;;;;;23.30;51.30;;;;;;1539021;76;710;-75
2021/09/27 07:25:47;;;;;;;;;;;23.30;51.30;;;;;;1537690;76;715;-77
2021/09/27 07:27:48;;;;;;;;;;;23.30;51.40;;;;;;1507217;77;693;-77
2021/09/27 07:29:50;;;;;;;;;;;23.30;51.40;;;;;;1514458;77;1934;-76
2021/09/27 07:31:52;;;;;;;;;;;23.40;51.50;;;;;;1512094;78;1109;-75
2021/09/27 07:33:55;;;;;;;;;;;23.40;51.50;;;;;;1510488;78;751;-74
2021/09/27 07:35:57;;;;;;;;;;;23.50;51.40;;;;;;1543243;77;717;-74
2021/09/27 07:37:58;;;;;;;;;;;23.50;51.50;;;;;;1532209;76;730;-74
2021/09/27 07:40:00;;;;;;;;;;;23.50;51.40;;;;;;1512267;78;707;-76
2021/09/27 07:42:03;;;;;;;;;;;23.50;51.30;;;;;;1508891;78;1155;-74
2021/09/27 07:44:05;;;;;;;;;;;23.50;51.20;;;;;;1537384;76;666;-74
2021/09/27 07:46:07;;;;;;;;;;;23.50;51.30;;;;;;1537711;76;743;-75
2021/09/27 07:48:13;;;;;;;;;;;23.50;51.30;;;;;;1512401;78;658;-74
2021/09/27 07:50:15;;;;;;;;;;;23.60;51.30;;;;;;1506637;77;1898;-76
2021/09/27 07:52:17;;;;;;;;;;;23.70;51.30;;;;;;1491046;78;1144;-75
2021/09/27 07:54:19;;;;;;;;;;;23.70;51.20;;;;;;1522602;77;697;-74
2021/09/27 07:56:20;;;;;;;;;;;23.70;51.30;;;;;;1505070;77;676;-74
2021/09/27 07:58:24;;;;;;;;;;;23.70;51.30;;;;;;1510469;79;712;-74
2021/09/27 08:00:26;;;;;;;;;;;23.70;51.20;;;;;;1508662;77;1193;-73
2021/09/27 08:02:31;;;;;;;;;;;23.80;51.20;;;;;;1509090;77;723;-75
2021/09/27 08:04:34;;;;;;;;;;;23.70;51.20;;;;;;1511342;78;676;-75
2021/09/27 08:06:37;;;;;;;;;;;23.90;51.20;;;;;;1505815;78;726;-74
2021/09/27 08:08:38;;;;;;;;;;;23.90;51.00;;;;;;1536707;76;848;-73
2021/09/27 08:10:40;;;;;;;;;;;23.90;51.00;;;;;;1525786;77;1922;-78
2021/09/27 08:12:43;;;;;;;;;;;24.00;51.00;;;;;;1508991;78;646;-73
2021/09/27 08:14:44;;;;;;;;;;;23.90;51.00;;;;;;1493356;78;615;-77
2021/09/27 08:16:46;;;;;;;;;;;24.00;51.00;;;;;;1506841;79;658;-76
2021/09/27 08:18:48;;;;;;;;;;;24.00;51.00;;;;;;1534444;77;759;-75
2021/09/27 08:20:52;;;;;;;;;;;24.00;50.80;;;;;;1538442;77;1151;-76
2021/09/27 08:22:54;;;;;;;;;;;24.00;50.60;;;;;;1542094;77;1164;-79
2021/09/27 08:24:56;;;;;;;;;;;24.10;50.60;;;;;;1542779;75;720;-81
2021/09/27 08:26:59;;;;;;;;;;;24.10;50.60;;;;;;1542961;75;740;-75
2021/09/27 08:29:01;;;;;;;;;;;24.20;50.50;;;;;;1542809;77;645;-79
2021/09/27 08:31:04;;;;;;;;;;;24.10;50.50;;;;;;1542583;77;1999;-74
2021/09/27 08:33:06;;;;;;;;;;;24.20;50.30;;;;;;1508937;78;1095;-72
2021/09/27 08:35:08;;;;;;;;;;;24.20;50.40;;;;;;1511415;78;712;-74
2021/09/27 08:37:10;;;;;;;;;;;24.20;50.40;;;;;;1542982;77;744;-73
2021/09/27 08:39:12;;;;;;;;;;;24.20;50.40;;;;;;1534241;77;721;-74
2021/09/27 08:41:22;;;;;;;;;;;24.20;50.50;;;;;;1509281;78;1133;-77
2021/09/27 08:43:28;;;;;;;;;;;24.20;50.50;;;;;;1508722;78;672;-77
2021/09/27 08:45:30;;;;;;;;;;;24.30;50.70;;;;;;1558484;76;680;-80
2021/09/27 08:47:36;;;;;;;;;;;24.20;50.50;;;;;;1533210;76;730;-77
2021/09/27 08:49:52;;;;;;;;;;;24.20;50.50;;;;;;1560049;76;730;-79
2021/09/27 08:51:54;;;;;;;;;;;24.30;50.50;;;;;;1531432;77;1136;-79
2021/09/27 08:53:56;;;;;;;;;;;24.20;50.20;;;;;;1577028;75;654;-76
2021/09/27 08:56:02;;;;;;;;;;;24.30;50.40;;;;;;1561144;76;710;-74
2021/09/27 08:58:05;;;;;;;;;;;24.20;50.10;;;;;;1535846;76;713;-76
2021/09/27 09:00:14;;;;;;;;;;;24.30;50.00;;;;;;1531793;77;738;-79
2021/09/27 09:02:19;;;;;;;;;;;24.30;50.00;;;;;;1504012;77;1095;-75
2021/09/27 09:04:25;;;;;;;;;;;24.30;49.90;;;;;;1511506;77;1263;-78
2021/09/27 09:06:28;;;;;;;;;;;24.30;49.90;;;;;;1535372;77;696;-75
2021/09/27 09:08:38;;;;;;;;;;;24.30;50.00;;;;;;1510746;78;711;-77
2021/09/27 09:10:47;;;;;;;;;;;24.30;50.00;;;;;;1508692;78;1921;-74
2021/09/27 09:12:51;;;;;;;;;;;24.30;50.00;;;;;;1500382;77;1029;-80
2021/09/27 09:14:54;;;;;;;;;;;24.30;50.10;;;;;;1510790;77;1041;-78
2021/09/27 09:16:56;;;;;;;;;;;24.30;50.10;;;;;;1507662;78;1011;-77
2021/09/27 09:19:00;;;;;;;;;;;24.40;50.20;;;;;;1519530;77;711;-75
2021/09/27 09:21:04;;;;;;;;;;;24.40;50.10;;;;;;1506481;77;1156;-75
2021/09/27 09:23:06;;;;;;;;;;;24.50;50.10;;;;;;1490011;77;658;-77
2021/09/27 09:25:10;;;;;;;;;;;24.40;50.00;;;;;;1509191;77;720;-79
2021/09/27 09:27:12;;;;;;;;;;;24.40;50.00;;;;;;1493357;78;728;-75
2021/09/27 09:29:15;;;;;;;;;;;24.30;50.00;;;;;;1515165;77;736;-79
2021/09/27 09:31:21;;;;;;;;;;;24.30;50.10;;;;;;1505108;78;1937;-76
2021/09/27 09:33:36;;;;;;;;;;;24.50;50.20;;;;;;1516396;77;728;-79
2021/09/27 09:35:38;;;;;;;;;;;24.40;50.00;;;;;;1503351;77;753;-77
2021/09/27 09:37:41;;;;;;;;;;;24.40;49.90;;;;;;1507785;77;712;-75
2021/09/27 09:39:54;;;;;;;;;;;24.40;50.00;;;;;;1511534;78;717;-79
2021/09/27 09:41:57;;;;;;;;;;;24.40;50.00;;;;;;1512561;77;1184;-77
2021/09/27 09:43:59;;;;;;;;;;;24.40;50.00;;;;;;1512434;77;1031;-78
2021/09/27 09:46:09;;;;;;;;;;;24.40;50.10;;;;;;1512776;77;729;-75
2021/09/27 09:48:23;;;;;;;;;;;24.40;50.10;;;;;;1503712;78;704;-75
2021/09/27 09:50:27;;;;;;;;;;;24.40;50.10;;;;;;1510632;78;1933;-76
2021/09/27 09:52:30;;;;;;;;;;;24.50;50.20;;;;;;1510652;78;860;-78
2021/09/27 09:54:38;;;;;;;;;;;24.50;50.10;;;;;;1511068;78;1018;-77
2021/09/27 09:56:37;;;;;;;;;;;24.40;50.00;;;;;;1508172;78;1105;-75
2021/09/27 09:58:46;;;;;;;;;;;24.40;50.00;;;;;;1510053;78;717;-77
2021/09/27 10:00:52;;;;;;;;;;;24.50;50.10;;;;;;1511326;78;1164;-79
2021/09/27 10:02:54;;;;;;;;;;;24.50;50.00;;;;;;1533926;76;727;-77
2021/09/27 10:04:57;;;;;;;;;;;24.40;49.70;;;;;;1533655;77;721;-76
2021/09/27 10:07:05;;;;;;;;;;;24.40;49.60;;;;;;1534683;77;993;-77
2021/09/27 10:09:06;;;;;;;;;;;24.40;49.70;;;;;;1534731;77;1199;-76
2021/09/27 10:11:10;;;;;;;;;;;24.40;49.70;;;;;;1534926;77;1936;-75
2021/09/27 10:13:28;;;;;;;;;;;24.30;49.90;;;;;;1534830;77;878;-76
2021/09/27 10:15:38;;;;;;;;;;;24.30;49.90;;;;;;1537066;76;787;-77
2021/09/27 10:17:40;;;;;;;;;;;24.30;49.70;;;;;;1539877;76;638;-82
2021/09/27 10:19:58;;;;;;;;;;;24.30;49.80;;;;;;1535991;76;652;-80
2021/09/27 10:22:07;;;;;;;;;;;24.30;49.90;;;;;;1503885;77;1124;-79
2021/09/27 10:24:19;;;;;;;;;;;24.30;50.00;;;;;;1508411;78;654;-78
2021/09/27 10:26:27;;;;;;;;;;;24.30;50.00;;;;;;1511097;77;710;-79
2021/09/27 10:28:28;;;;;;;;;;;24.30;50.10;;;;;;1536469;77;809;-82
2021/09/27 10:30:44;;;;;;;;;;;24.30;50.20;;;;;;1536156;77;1948;-84
2021/09/27 10:32:47;;;;;;;;;;;24.30;50.10;;;;;;1535835;77;1054;-77
2021/09/27 10:34:49;;;;;;;;;;;24.30;50.00;;;;;;1512214;77;753;-80
2021/09/27 10:36:53;;;;;;;;;;;24.30;50.00;;;;;;1510133;78;731;-81
2021/09/27 10:38:58;;;;;;;;;;;24.30;50.00;;;;;;1511520;78;780;-82
2021/09/27 10:41:00;;;;;;;;;;;24.20;49.80;;;;;;1537459;77;1157;-82
2021/09/27 10:43:02;;;;;;;;;;;24.30;49.90;;;;;;1535592;77;1045;-78
2021/09/27 10:45:04;;;;;;;;;;;24.30;50.00;;;;;;1509165;78;716;-78
2021/09/27 10:47:08;;;;;;;;;;;24.20;50.00;;;;;;1488396;80;755;-81
2021/09/27 10:49:12;;;;;;;;;;;24.20;50.00;;;;;;1567208;76;712;-72
2021/09/27 10:51:13;;;;;;;;;;;24.30;50.00;;;;;;1559917;75;1934;-73
2021/09/27 10:53:16;;;;;;;;;;;24.30;50.00;;;;;;1561002;76;825;-67
2021/09/27 10:55:20;;;;;;;;;;;24.30;50.00;;;;;;1565246;75;718;-68
2021/09/27 10:57:22;;;;;;;;;;;24.30;50.20;;;;;;1565221;75;1072;-68
2021/09/27 10:59:38;;;;;;;;;;;24.30;50.00;;;;;;1565883;76;699;-70
2021/09/27 11:01:47;;;;;;;;;;;24.20;49.90;;;;;;1522990;76;1129;-68
2021/09/27 11:03:53;;;;;;;;;;;24.30;50.00;;;;;;1565147;75;1164;-70
2021/09/27 11:05:55;;;;;;;;;;;24.20;50.00;;;;;;1565079;75;1366;-68
2021/09/27 11:07:57;;;;;;;;;;;24.20;50.00;;;;;;1565786;75;714;-71
2021/09/27 11:09:59;;;;;;;;;;;24.30;50.50;;;;;;1565630;75;728;-69
2021/09/27 11:12:03;;;;;;;;;;;24.30;50.20;;;;;;1537885;76;1941;-67
2021/09/27 11:14:18;;;;;;;;;;;24.30;50.00;;;;;;1511256;78;751;-72
2021/09/27 11:16:24;;;;;;;;;;;24.30;50.00;;;;;;1507079;79;731;-68
2021/09/27 11:18:29;;;;;;;;;;;24.20;50.00;;;;;;1509730;77;724;-71
2021/09/27 11:20:51;;;;;;;;;;;24.20;50.00;;;;;;1506718;77;1220;-71
2021/09/27 11:22:55;;;;;;;;;;;24.30;50.10;;;;;;1558613;76;712;-74
2021/09/27 11:25:05;;;;;;;;;;;24.20;50.00;;;;;;1559171;76;710;-72
2021/09/27 11:27:14;;;;;;;;;;;24.20;50.10;;;;;;1563377;76;718;-73
2021/09/27 11:29:20;;;;;;;;;;;24.20;50.10;;;;;;1559275;76;703;-72
2021/09/27 11:31:29;;;;;;;;;;;24.20;50.10;;;;;;1562211;76;1939;-71
2021/09/27 11:33:33;;;;;;;;;;;24.20;50.00;;;;;;1558347;76;756;-72
2021/09/27 11:35:42;;;;;;;;;;;24.20;50.00;;;;;;1559203;76;678;-69
2021/09/27 11:37:45;;;;;;;;;;;24.20;49.80;;;;;;1539147;76;734;-73
2021/09/27 11:39:51;;;;;;;;;;;24.20;49.90;;;;;;1535400;77;716;-73
2021/09/27 11:41:55;;;;;;;;;;;24.20;49.90;;;;;;1508891;78;1158;-74
2021/09/27 11:44:10;;;;;;;;;;;24.20;49.90;;;;;;1499990;78;986;-72
2021/09/27 11:46:21;;;;;;;;;;;24.20;49.90;;;;;;1529462;76;724;-73
2021/09/27 11:48:32;;;;;;;;;;;24.20;49.80;;;;;;1510965;78;1151;-72
2021/09/27 11:50:47;;;;;;;;;;;24.20;49.70;;;;;;1526199;77;1143;-73
2021/09/27 11:53:00;;;;;;;;;;;24.20;49.90;;;;;;1508961;78;1130;-73
2021/09/27 11:55:06;;;;;;;;;;;24.10;49.90;;;;;;1509907;77;778;-75
2021/09/27 11:57:28;;;;;;;;;;;24.10;49.90;;;;;;1511505;78;1170;-73
2021/09/27 11:59:37;;;;;;;;;;;24.10;50.00;;;;;;1510960;78;683;-74
2021/09/27 12:01:41;;;;;;;;;;;24.10;50.00;;;;;;1509195;78;1149;-72
2021/09/27 12:03:59;;;;;;;;;;;24.10;50.20;;;;;;1510668;77;702;-71
2021/09/27 12:06:15;;;;;;;;;;;24.10;50.10;;;;;;1505962;77;714;-72
2021/09/27 12:08:19;;;;;;;;;;;24.10;50.10;;;;;;1510927;78;758;-73
2021/09/27 12:10:25;;;;;;;;;;;24.10;50.10;;;;;;1511627;78;807;-70
2021/09/27 12:12:28;;;;;;;;;;;24.10;50.10;;;;;;1509236;78;1931;-72
2021/09/27 12:14:38;;;;;;;;;;;24.00;50.10;;;;;;1520095;77;750;-73
2021/09/27 12:16:41;;;;;;;;;;;24.10;50.00;;;;;;1512884;78;675;-70
2021/09/27 12:18:52;;;;;;;;;;;24.10;50.00;;;;;;1502794;79;797;-72
2021/09/27 12:20:53;;;;;;;;;;;24.10;50.00;;;;;;1512633;78;1170;-72
2021/09/27 12:22:57;;;;;;;;;;;24.10;50.10;;;;;;1511099;78;741;-79
2021/09/27 12:25:00;;;;;;;;;;;24.10;50.10;;;;;;1509242;78;1031;-73
2021/09/27 12:27:07;;;;;;;;;;;24.10;50.10;;;;;;1504982;77;1092;-72
2021/09/27 12:29:13;;;;;;;;;;;24.00;50.00;;;;;;1535671;77;799;-73
2021/09/27 12:31:15;;;;;;;;;;;24.00;49.90;;;;;;1561531;76;1939;-73
2021/09/27 12:33:25;;;;;;;;;;;24.10;50.00;;;;;;1520781;77;1201;-72